createdAt,value
2023-04-03T04:02:06.001Z,1.70
2023-04-03T04:04:37.765Z,1.70
2023-04-03T04:07:09.420Z,1.70
2023-04-03T04:09:41.146Z,1.70
2023-04-03T04:12:12.801Z,1.70
2023-04-03T04:14:44.474Z,1.70
2023-04-03T04:17:17.505Z,1.70
2023-04-03T04:19:49.178Z,1.70
2023-04-03T04:22:20.828Z,1.70
2023-04-03T04:24:52.527Z,1.70
2023-04-03T04:27:24.187Z,1.70
2023-04-03T04:29:57.031Z,1.70
2023-04-03T04:32:31.128Z,1.70
2023-04-03T04:35:02.903Z,1.70
2023-04-03T04:37:34.563Z,1.70
2023-04-03T04:40:07.720Z,1.60
2023-04-03T04:42:39.345Z,1.70
2023-04-03T04:45:11.377Z,1.70
2023-04-03T04:47:44.408Z,1.70
2023-04-03T04:50:16.302Z,1.70
2023-04-03T04:52:47.965Z,1.70
2023-04-03T04:55:19.623Z,1.70
2023-04-03T04:57:51.280Z,1.70
2023-04-03T05:00:23.018Z,1.70
2023-04-03T05:02:56.043Z,1.70
2023-04-03T05:05:27.788Z,1.70
2023-04-03T05:07:59.442Z,1.70
2023-04-03T05:10:31.190Z,1.70
2023-04-03T05:13:02.875Z,1.80
2023-04-03T05:15:34.590Z,1.80
2023-04-03T05:18:07.680Z,1.80
2023-04-03T05:20:39.403Z,1.90
2023-04-03T05:23:11.184Z,2.00
2023-04-03T05:25:42.852Z,2.10
2023-04-03T05:28:14.495Z,2.30
2023-04-03T05:30:46.174Z,2.50
2023-04-03T05:33:19.176Z,2.70
2023-04-03T05:35:50.936Z,2.90
2023-04-03T05:38:22.708Z,3.10
2023-04-03T05:40:54.551Z,3.30
2023-04-03T05:43:26.198Z,3.60
2023-04-03T05:45:57.945Z,3.90
2023-04-03T05:48:30.949Z,4.30
2023-04-03T05:51:02.620Z,4.70
2023-04-03T05:53:35.857Z,5.10
2023-04-03T05:56:07.809Z,5.50
2023-04-03T05:58:39.457Z,5.90
2023-04-03T06:01:11.127Z,6.30
2023-04-03T06:03:44.224Z,6.90
2023-04-03T06:06:16.024Z,7.50
2023-04-03T06:08:47.827Z,7.70
2023-04-03T06:11:19.508Z,8.20
2023-04-03T06:13:51.162Z,8.30
2023-04-03T06:16:22.917Z,8.80
2023-04-03T06:18:55.972Z,9.30
2023-04-03T06:21:27.703Z,9.90
2023-04-03T06:23:59.616Z,10.30
2023-04-03T06:26:31.343Z,10.40
2023-04-03T06:29:03.297Z,10.60
2023-04-03T06:31:35.171Z,10.00
2023-04-03T06:34:09.726Z,10.10
2023-04-03T06:36:41.694Z,10.60
2023-04-03T06:39:13.813Z,11.00
2023-04-03T06:41:45.517Z,11.40
2023-04-03T06:44:17.229Z,11.80
2023-04-03T06:46:48.919Z,12.10
2023-04-03T06:49:21.908Z,11.90
2023-04-03T06:51:53.587Z,11.90
2023-04-03T06:54:25.241Z,12.10
2023-04-03T06:56:56.981Z,11.80
2023-04-03T06:59:28.734Z,11.90
2023-04-03T07:02:00.465Z,11.80
2023-04-03T07:04:33.530Z,12.10
2023-04-03T07:07:05.250Z,12.30
2023-04-03T07:09:36.887Z,11.90
2023-04-03T07:12:08.567Z,12.00
2023-04-03T07:14:40.348Z,12.00
2023-04-03T07:17:12.074Z,12.20
2023-04-03T07:19:45.080Z,11.80
2023-04-03T07:22:17.450Z,11.80
2023-04-03T07:24:49.111Z,12.20
2023-04-03T07:27:20.736Z,11.70
2023-04-03T07:29:53.370Z,11.50
2023-04-03T07:32:25.600Z,11.30
2023-04-03T07:34:58.597Z,11.10
2023-04-03T07:37:30.251Z,10.70
2023-04-03T07:40:01.941Z,10.40
2023-04-03T07:42:33.608Z,10.50
2023-04-03T07:45:05.887Z,10.40
2023-04-03T07:47:37.584Z,10.50
2023-04-03T07:50:11.195Z,10.50
2023-04-03T07:52:42.919Z,10.80
2023-04-03T07:55:14.601Z,11.00
2023-04-03T08:02:50.727Z,9.80
2023-04-03T08:05:23.797Z,9.30
2023-04-03T08:07:55.491Z,9.00
2023-04-03T08:10:27.266Z,8.70
2023-04-03T08:12:58.927Z,7.50
2023-04-03T08:15:30.951Z,7.60
2023-04-03T08:18:02.680Z,7.30
2023-04-03T08:20:35.700Z,7.10
2023-04-03T08:23:07.400Z,6.90
2023-04-03T08:25:39.417Z,6.80
2023-04-03T08:28:11.421Z,6.80
2023-04-03T08:30:43.384Z,6.60
2023-04-03T08:33:15.162Z,6.50
2023-04-03T08:35:48.224Z,6.50
2023-04-03T08:38:19.869Z,6.50
2023-04-03T08:41:01.445Z,6.40
2023-04-03T08:43:37.608Z,6.40
2023-04-03T08:46:11.470Z,6.30
2023-04-03T08:48:43.488Z,6.30
2023-04-03T08:51:17.648Z,6.30
2023-04-03T08:53:54.689Z,6.30
2023-04-03T08:56:26.368Z,6.30
2023-04-03T08:58:59.041Z,6.30
2023-04-03T09:01:34.391Z,6.30
2023-04-03T09:04:11.527Z,6.30
2023-04-03T09:06:45.444Z,6.40
2023-04-03T09:09:22.016Z,6.60
2023-04-03T09:11:56.082Z,6.70
2023-04-03T09:14:31.152Z,6.70
2023-04-03T09:17:04.414Z,6.90
2023-04-03T09:19:38.988Z,7.10
2023-04-03T09:22:17.215Z,7.00
2023-04-03T09:24:53.335Z,7.00
2023-04-03T09:27:25.056Z,7.00
2023-04-03T09:29:57.033Z,7.00
2023-04-03T09:32:30.202Z,7.00
2023-04-03T09:35:09.638Z,7.10
2023-04-03T09:37:50.754Z,7.10
2023-04-03T09:40:30.774Z,7.20
2023-04-03T09:43:03.186Z,7.20
2023-04-03T09:45:35.744Z,7.30
2023-04-03T09:48:10.390Z,7.40
2023-04-03T09:50:54.648Z,7.40
2023-04-03T09:53:31.073Z,7.50
2023-04-03T09:56:03.933Z,7.60
2023-04-03T09:58:48.912Z,7.60
2023-04-03T10:01:25.048Z,7.60
2023-04-03T10:04:08.028Z,7.70
2023-04-03T10:06:40.820Z,7.80
2023-04-03T10:09:19.533Z,7.70
2023-04-03T10:12:02.318Z,7.80
2023-04-03T10:17:16.662Z,7.90
2023-04-03T10:19:48.959Z,8.00
2023-04-03T10:22:22.156Z,8.00
2023-04-03T10:25:00.160Z,8.00
2023-04-03T10:30:16.672Z,8.00
2023-04-03T10:43:16.938Z,8.30
2023-04-03T10:48:38.454Z,8.20
2023-04-03T10:51:24.136Z,7.90
2023-04-03T10:56:36.058Z,8.80
2023-04-03T11:01:46.121Z,8.30
2023-04-03T11:17:24.746Z,8.50
2023-04-03T11:20:01.162Z,8.50
2023-04-03T11:22:33.719Z,8.60
2023-04-03T11:30:17.110Z,8.60
2023-04-03T11:33:31.833Z,8.50
2023-04-03T11:36:12.541Z,8.50
2023-04-03T11:38:53.993Z,8.40
2023-04-03T11:41:27.985Z,8.50
2023-04-03T11:44:02.197Z,8.50
2023-04-03T11:46:57.247Z,8.70
2023-04-03T11:52:56.758Z,8.60
2023-04-03T11:55:54.308Z,8.80
2023-04-03T12:01:09.520Z,8.90
2023-04-03T12:04:13.369Z,8.90
2023-04-03T12:07:02.922Z,8.90
2023-04-03T12:09:53.507Z,8.90
2023-04-03T12:12:29.359Z,8.70
2023-04-03T12:15:49.089Z,8.60
2023-04-03T12:19:01.706Z,8.60
2023-04-03T12:22:11.582Z,8.60
2023-04-03T12:24:43.660Z,8.60
2023-04-03T12:27:21.496Z,8.60
2023-04-03T12:29:56.825Z,8.60
2023-04-03T12:32:42.378Z,8.70
2023-04-03T12:35:28.132Z,8.70
2023-04-03T12:38:45.587Z,8.60
2023-04-03T12:41:23.010Z,8.60
2023-04-03T12:44:03.629Z,8.60
2023-04-03T12:46:37.542Z,8.70
2023-04-03T12:49:33.897Z,8.70
2023-04-03T12:52:14.226Z,8.80
2023-04-03T12:54:46.317Z,8.80
2023-04-03T12:57:19.111Z,8.80
2023-04-03T12:59:50.979Z,8.80
2023-04-03T13:02:24.720Z,9.00
2023-04-03T13:04:57.576Z,8.90
2023-04-03T13:07:32.202Z,8.90
2023-04-03T13:10:14.286Z,8.90
2023-04-03T13:12:50.536Z,8.80
2023-04-03T13:17:57.822Z,8.70
2023-04-03T13:20:30.562Z,8.90
2023-04-03T13:23:04.923Z,9.00
2023-04-03T13:25:37.429Z,9.00
2023-04-03T13:28:14.064Z,9.00
2023-04-03T13:30:56.931Z,9.00
2023-04-03T13:33:29.768Z,9.00
2023-04-03T13:36:03.450Z,8.90
2023-04-03T13:38:36.762Z,9.00
2023-04-03T13:41:24.293Z,9.00
2023-04-03T13:44:00.591Z,9.00
2023-04-03T13:46:42.093Z,9.20
2023-04-03T13:49:21.008Z,9.20
2023-04-03T13:52:04.246Z,9.20
2023-04-03T13:54:40.036Z,9.10
2023-04-03T13:57:13.562Z,9.20
2023-04-03T13:59:45.547Z,9.10
2023-04-03T14:02:21.197Z,9.10
2023-04-03T14:04:54.573Z,9.10
2023-04-03T14:07:26.510Z,9.10
2023-04-03T14:09:59.537Z,9.10
2023-04-03T14:12:33.821Z,9.10
2023-04-03T14:15:11.861Z,9.10
2023-04-03T14:17:43.677Z,9.10
2023-04-03T14:20:16.932Z,9.00
2023-04-03T14:22:48.881Z,9.10
2023-04-03T14:25:22.198Z,9.20
2023-04-03T14:27:54.089Z,9.20
2023-04-03T14:43:15.608Z,9.50
2023-04-03T14:45:47.443Z,9.50
2023-04-03T14:48:20.324Z,9.30
2023-04-03T14:51:04.504Z,9.40
2023-04-03T14:53:39.065Z,9.40
2023-04-03T14:56:14.002Z,9.20
2023-04-03T14:58:45.692Z,9.30
2023-04-03T15:01:17.689Z,9.40
2023-04-03T15:03:49.570Z,9.30
2023-04-03T15:06:21.411Z,9.40
2023-04-03T15:08:53.053Z,9.40
2023-04-03T15:11:26.058Z,9.40
2023-04-03T15:13:57.869Z,9.30
2023-04-03T15:16:30.345Z,9.40
2023-04-03T15:19:02.127Z,9.50
2023-04-03T15:21:33.801Z,9.50
2023-04-03T15:24:05.542Z,9.60
2023-04-03T15:26:38.579Z,9.60
2023-04-03T15:29:10.242Z,9.60
2023-04-03T15:31:42.027Z,9.70
2023-04-03T15:36:50.429Z,9.80
2023-04-03T15:39:22.286Z,9.70
2023-04-03T15:41:55.415Z,9.60
2023-04-03T15:44:27.051Z,9.60
2023-04-03T15:46:58.969Z,9.60
2023-04-03T15:49:30.755Z,9.60
2023-04-03T15:52:02.465Z,9.50
2023-04-03T15:54:34.165Z,9.40
2023-04-03T15:57:07.278Z,9.40
2023-04-03T15:59:38.978Z,9.30
2023-04-03T16:02:10.863Z,9.40
2023-04-03T16:04:42.581Z,9.40
2023-04-03T16:07:14.257Z,9.40
2023-04-03T16:09:45.903Z,9.40
2023-04-03T16:12:18.959Z,9.30
2023-04-03T16:14:50.623Z,9.20
2023-04-03T16:17:22.321Z,9.20
2023-04-03T16:19:54.624Z,9.40
2023-04-03T16:22:26.782Z,9.20
2023-04-03T16:24:58.455Z,9.10
2023-04-03T16:27:31.489Z,9.10
2023-04-03T16:30:03.552Z,9.10
2023-04-03T16:32:35.306Z,9.10
2023-04-03T16:35:07.341Z,9.00
2023-04-03T16:37:39.086Z,9.10
2023-04-03T16:40:10.864Z,9.10
2023-04-03T16:42:43.867Z,9.10
2023-04-03T16:45:15.631Z,8.90
2023-04-03T16:47:47.300Z,8.90
2023-04-03T16:50:19.098Z,8.80
2023-04-03T16:52:50.751Z,8.80
2023-04-03T16:55:22.454Z,8.80
2023-04-03T16:57:55.466Z,8.70
2023-04-03T17:00:27.237Z,8.70
2023-04-03T17:02:58.932Z,8.50
2023-04-03T17:05:30.640Z,8.60
2023-04-03T17:08:02.300Z,8.60
2023-04-03T17:10:33.979Z,8.60
2023-04-03T17:13:07.034Z,8.50
2023-04-03T17:15:39.068Z,8.60
2023-04-03T17:18:10.880Z,8.50
2023-04-03T17:20:42.563Z,8.50
2023-04-03T17:23:14.219Z,8.50
2023-04-03T17:25:45.895Z,8.40
2023-04-03T17:28:19.026Z,8.30
2023-04-03T17:30:50.739Z,8.30
2023-04-03T17:33:22.493Z,8.30
2023-04-03T17:35:56.336Z,8.20
2023-04-03T17:38:28.979Z,8.20
2023-04-03T17:41:01.405Z,8.10
2023-04-03T17:43:34.516Z,8.10
2023-04-03T17:46:07.526Z,8.10
2023-04-03T17:48:40.168Z,8.00
2023-04-03T17:51:12.715Z,8.00
2023-04-03T17:53:44.429Z,7.90
2023-04-03T17:56:16.879Z,7.90
2023-04-03T17:58:50.304Z,7.80
2023-04-03T18:01:22.892Z,7.80
2023-04-03T18:03:55.570Z,7.70
2023-04-03T18:06:28.050Z,7.70
2023-04-03T18:09:03.628Z,7.60
2023-04-03T18:11:35.519Z,7.60
2023-04-03T18:14:08.510Z,7.50
2023-04-03T18:16:40.188Z,7.50
2023-04-03T18:19:23.019Z,7.50
2023-04-03T18:21:56.611Z,7.40
2023-04-03T18:24:28.303Z,7.40
2023-04-03T18:27:01.163Z,7.30
2023-04-03T18:29:34.925Z,7.70
2023-04-03T18:32:06.718Z,7.20
2023-04-03T18:34:38.393Z,7.10
2023-04-03T18:37:10.094Z,7.10
2023-04-03T18:39:41.869Z,7.00
2023-04-03T18:42:14.834Z,7.00
2023-04-03T18:44:49.592Z,7.00
2023-04-03T18:47:21.309Z,6.90
2023-04-03T18:49:53.029Z,6.90
2023-04-03T18:52:24.785Z,6.80
